createdAt,value
2018-08-25T00:02:02.665Z,3.45
2018-08-25T00:04:29.950Z,2.87
2018-08-25T00:06:57.306Z,2.90
2018-08-25T00:09:24.602Z,2.65
2018-08-25T00:11:51.925Z,2.95
2018-08-25T00:14:19.211Z,2.70
2018-08-25T00:16:46.469Z,3.05
2018-08-25T00:19:13.919Z,2.30
2018-08-25T00:21:41.189Z,3.02
2018-08-25T00:24:08.474Z,3.22
2018-08-25T00:26:35.780Z,2.77
2018-08-25T00:29:03.059Z,2.25
2018-08-25T00:31:30.355Z,3.10
2018-08-25T00:33:57.666Z,2.77
2018-08-25T00:36:25.351Z,2.55
2018-08-25T00:38:52.652Z,2.80
2018-08-25T00:41:20.057Z,2.42
2018-08-25T00:43:47.363Z,3.15
2018-08-25T00:46:14.925Z,2.80
2018-08-25T00:48:42.231Z,3.00
2018-08-25T00:51:09.523Z,2.90
2018-08-25T00:53:37.049Z,2.67
2018-08-25T00:56:04.403Z,2.80
2018-08-25T00:58:31.698Z,2.40
2018-08-25T01:00:59.035Z,2.40
2018-08-25T01:03:26.365Z,2.40
2018-08-25T01:05:53.754Z,2.65
2018-08-25T01:08:21.306Z,2.40
2018-08-25T01:10:48.586Z,2.60
2018-08-25T01:13:15.926Z,2.70
2018-08-25T01:15:43.245Z,2.92
2018-08-25T01:18:11.651Z,2.52
2018-08-25T01:20:39.108Z,2.35
2018-08-25T01:23:06.405Z,2.20
2018-08-25T01:25:33.691Z,2.37
2018-08-25T01:28:00.995Z,2.52
2018-08-25T01:30:28.303Z,2.55
2018-08-25T01:32:55.617Z,2.85
2018-08-25T01:35:22.902Z,2.52
2018-08-25T01:37:50.210Z,2.22
2018-08-25T01:40:17.520Z,2.15
2018-08-25T01:42:44.854Z,2.40
2018-08-25T01:45:12.145Z,2.40
2018-08-25T01:47:39.418Z,2.50
2018-08-25T01:50:06.742Z,2.62
2018-08-25T01:52:34.039Z,2.52
2018-08-25T01:55:01.386Z,2.92
2018-08-25T01:57:30.607Z,2.60
2018-08-25T01:59:58.034Z,3.12
2018-08-25T02:02:25.325Z,2.52
2018-08-25T02:04:52.762Z,2.80
2018-08-25T02:07:20.029Z,2.60
2018-08-25T02:09:47.317Z,2.45
2018-08-25T02:12:14.603Z,2.62
2018-08-25T02:14:41.943Z,2.67
2018-08-25T02:17:09.229Z,2.40
2018-08-25T02:19:36.520Z,2.30
2018-08-25T02:22:03.791Z,2.45
2018-08-25T02:24:31.051Z,2.50
2018-08-25T02:26:58.379Z,2.55
2018-08-25T02:29:25.694Z,2.50
2018-08-25T02:31:52.990Z,2.67
2018-08-25T02:34:20.277Z,2.50
2018-08-25T02:36:47.579Z,2.70
2018-08-25T02:39:14.854Z,2.85
2018-08-25T02:41:43.022Z,2.50
2018-08-25T02:44:10.309Z,2.50
2018-08-25T02:46:37.596Z,2.75
2018-08-25T02:49:05.022Z,2.80
2018-08-25T02:51:32.319Z,2.60
2018-08-25T02:53:59.620Z,2.77
2018-08-25T02:56:26.925Z,2.33
2018-08-25T02:58:54.229Z,2.95
2018-08-25T03:01:21.550Z,2.80
2018-08-25T03:03:48.866Z,3.20
2018-08-25T03:06:16.179Z,2.90
2018-08-25T03:08:43.556Z,3.15
2018-08-25T03:11:10.830Z,2.65
2018-08-25T03:13:38.224Z,3.35
2018-08-25T03:16:05.503Z,3.33
2018-08-25T03:18:32.819Z,3.33
2018-08-25T03:21:00.136Z,3.40
2018-08-25T03:23:27.464Z,2.75
2018-08-25T03:25:54.773Z,3.40
2018-08-25T03:28:22.098Z,3.87
2018-08-25T03:30:49.462Z,2.70
2018-08-25T03:33:16.731Z,3.12
2018-08-25T03:35:44.049Z,3.70
2018-08-25T03:38:12.302Z,3.55
2018-08-25T03:40:39.618Z,3.20
2018-08-25T03:43:06.929Z,2.77
2018-08-25T03:45:34.247Z,2.85
2018-08-25T03:48:01.616Z,3.47
2018-08-25T03:50:28.919Z,3.10
2018-08-25T03:52:56.271Z,3.27
2018-08-25T03:55:23.591Z,3.37
2018-08-25T03:57:50.927Z,3.30
2018-08-25T04:00:18.228Z,3.50
2018-08-25T04:02:45.531Z,2.80
2018-08-25T04:05:12.880Z,2.80
2018-08-25T04:07:40.174Z,3.08
2018-08-25T04:10:07.496Z,2.65
2018-08-25T04:12:34.807Z,2.90
2018-08-25T04:15:02.203Z,3.45
2018-08-25T04:17:29.511Z,3.67
2018-08-25T04:19:56.840Z,3.50
2018-08-25T04:22:24.190Z,3.00
2018-08-25T04:24:51.491Z,3.70
2018-08-25T04:27:18.780Z,3.10
2018-08-25T04:29:46.049Z,3.67
2018-08-25T04:32:13.391Z,3.15
2018-08-25T04:34:40.738Z,2.75
2018-08-25T04:37:08.049Z,3.30
2018-08-25T04:39:35.324Z,3.12
2018-08-25T04:42:02.675Z,3.40
2018-08-25T04:44:29.977Z,3.20
2018-08-25T04:46:57.282Z,2.90
2018-08-25T04:49:24.637Z,3.40
2018-08-25T04:51:51.996Z,3.25
2018-08-25T04:54:19.312Z,3.27
2018-08-25T04:56:46.649Z,3.45
2018-08-25T04:59:13.944Z,3.25
2018-08-25T05:01:41.243Z,3.27
2018-08-25T05:04:08.539Z,3.25
2018-08-25T05:06:35.906Z,3.65
2018-08-25T05:09:04.496Z,3.00
2018-08-25T05:11:31.788Z,3.80
2018-08-25T05:13:59.074Z,3.85
2018-08-25T05:16:26.353Z,3.58
2018-08-25T05:18:53.639Z,3.30
2018-08-25T05:21:20.948Z,4.00
2018-08-25T05:23:48.240Z,3.20
2018-08-25T05:26:15.815Z,3.10
2018-08-25T05:28:43.154Z,3.22
2018-08-25T05:31:10.475Z,4.05
2018-08-25T05:33:37.865Z,3.22
2018-08-25T05:36:05.130Z,3.35
2018-08-25T05:38:32.455Z,3.67
2018-08-25T05:40:59.754Z,3.52
2018-08-25T05:43:27.105Z,3.35
2018-08-25T05:45:54.412Z,3.50
2018-08-25T05:48:21.720Z,3.98
2018-08-25T05:50:49.122Z,3.45
2018-08-25T05:53:16.458Z,4.42
2018-08-25T05:55:43.810Z,3.85
2018-08-25T05:58:11.135Z,4.28
2018-08-25T06:00:38.461Z,3.70
2018-08-25T06:03:05.794Z,4.50
2018-08-25T06:05:33.084Z,3.58
2018-08-25T06:08:00.390Z,3.55
2018-08-25T06:10:27.719Z,3.25
2018-08-25T06:12:55.027Z,3.58
2018-08-25T06:15:22.366Z,4.15
2018-08-25T06:17:49.718Z,3.90
2018-08-25T06:20:16.995Z,3.02
2018-08-25T06:22:44.270Z,3.22
2018-08-25T06:25:11.579Z,3.60
2018-08-25T06:27:38.893Z,3.00
2018-08-25T06:30:06.278Z,4.30
2018-08-25T06:32:33.606Z,3.80
2018-08-25T06:35:01.617Z,3.77
2018-08-25T06:37:28.927Z,3.65
2018-08-25T06:39:56.248Z,3.60
2018-08-25T06:42:23.535Z,3.42
2018-08-25T06:44:50.854Z,3.62
2018-08-25T06:47:18.216Z,3.20
2018-08-25T06:49:45.535Z,3.50
2018-08-25T06:52:12.842Z,3.20
2018-08-25T06:54:40.138Z,3.47
2018-08-25T06:57:07.482Z,3.08
2018-08-25T06:59:34.789Z,3.17
2018-08-25T07:02:02.423Z,3.27
2018-08-25T07:04:29.874Z,3.40
2018-08-25T07:06:57.191Z,3.40
2018-08-25T07:09:24.512Z,3.87
2018-08-25T07:11:51.859Z,3.52
2018-08-25T07:14:19.196Z,3.70
2018-08-25T07:16:46.508Z,3.30
2018-08-25T07:19:13.837Z,2.90
2018-08-25T07:21:41.172Z,3.37
2018-08-25T07:24:08.567Z,3.70
2018-08-25T07:26:35.903Z,4.75
2018-08-25T07:29:03.324Z,3.40
2018-08-25T07:31:30.615Z,3.65
2018-08-25T07:33:58.160Z,3.50
2018-08-25T07:36:25.727Z,3.50
2018-08-25T07:38:53.375Z,4.30
2018-08-25T07:41:20.746Z,3.30
2018-08-25T07:43:48.042Z,3.35
2018-08-25T07:46:15.369Z,3.07
2018-08-25T07:48:42.740Z,3.25
2018-08-25T07:51:10.194Z,3.27
2018-08-25T07:53:37.571Z,3.43
2018-08-25T07:56:04.987Z,3.30
2018-08-25T07:58:32.425Z,3.97
2018-08-25T08:00:59.801Z,3.40
2018-08-25T08:03:27.149Z,3.23
2018-08-25T08:05:54.454Z,3.70
2018-08-25T08:08:21.879Z,3.70
2018-08-25T08:10:49.546Z,3.03
2018-08-25T08:13:17.166Z,3.20
2018-08-25T08:15:44.687Z,2.60
2018-08-25T08:18:12.380Z,2.77
2018-08-25T08:20:40.102Z,3.60
2018-08-25T08:23:07.457Z,2.53
2018-08-25T08:25:34.742Z,2.70
2018-08-25T08:28:02.159Z,2.50
2018-08-25T08:30:29.611Z,3.00
2018-08-25T08:32:57.250Z,2.63
2018-08-25T08:35:24.539Z,2.63
2018-08-25T08:37:51.880Z,3.23
2018-08-25T08:40:19.215Z,2.80
2018-08-25T08:42:46.572Z,2.57
2018-08-25T08:45:13.939Z,2.47
2018-08-25T08:47:41.274Z,2.70
2018-08-25T08:50:10.044Z,2.90
2018-08-25T08:52:37.397Z,2.77
2018-08-25T08:55:04.811Z,2.30
2018-08-25T08:57:32.160Z,2.20
2018-08-25T08:59:59.828Z,2.50
2018-08-25T09:02:27.430Z,2.53
2018-08-25T09:04:55.537Z,2.50
2018-08-25T09:07:23.068Z,3.00
2018-08-25T09:09:50.425Z,2.73
2018-08-25T09:12:17.722Z,2.90
2018-08-25T09:14:45.648Z,2.90
2018-08-25T09:17:12.962Z,2.77
2018-08-25T09:19:40.251Z,2.70
2018-08-25T09:22:07.597Z,3.13
2018-08-25T09:24:34.980Z,2.90
2018-08-25T09:27:02.278Z,2.93
2018-08-25T09:29:29.611Z,3.80
2018-08-25T09:31:56.888Z,3.47
2018-08-25T09:34:24.140Z,2.80
2018-08-25T09:36:51.591Z,2.90
2018-08-25T09:39:18.845Z,3.30
2018-08-25T09:41:46.329Z,2.93
2018-08-25T09:44:13.535Z,3.30
2018-08-25T09:46:40.851Z,2.80
2018-08-25T09:49:08.107Z,3.37
2018-08-25T09:51:35.408Z,3.50
2018-08-25T09:54:02.774Z,2.83
2018-08-25T09:56:30.050Z,3.20
2018-08-25T09:58:57.430Z,3.30
2018-08-25T10:01:32.172Z,3.20
2018-08-25T10:03:59.760Z,3.53
2018-08-25T10:06:27.098Z,3.70
2018-08-25T10:08:54.384Z,3.73
2018-08-25T10:11:21.836Z,4.20
2018-08-25T10:13:49.132Z,4.00
2018-08-25T10:16:16.436Z,4.23
2018-08-25T10:18:43.795Z,3.63
2018-08-25T10:21:11.141Z,3.70
2018-08-25T10:23:38.529Z,3.80
2018-08-25T10:26:05.842Z,3.50
2018-08-25T10:28:33.143Z,3.40
2018-08-25T10:31:00.431Z,3.20
2018-08-25T10:33:27.729Z,3.23
2018-08-25T10:35:55.030Z,2.87
2018-08-25T10:38:22.320Z,3.07
2018-08-25T10:40:49.595Z,2.70
2018-08-25T10:43:16.903Z,2.57
2018-08-25T10:45:44.298Z,2.37
2018-08-25T10:48:11.704Z,2.47
2018-08-25T10:50:39.099Z,2.77
2018-08-25T10:53:06.370Z,2.17
2018-08-25T10:55:33.674Z,2.47
2018-08-25T10:58:00.961Z,2.60
2018-08-25T11:00:28.347Z,2.60
2018-08-25T11:02:55.560Z,2.50
2018-08-25T11:05:25.671Z,2.10
2018-08-25T11:07:52.977Z,2.03
2018-08-25T11:10:20.271Z,1.83
2018-08-25T11:12:47.541Z,1.83
2018-08-25T11:15:14.846Z,2.00
2018-08-25T11:17:42.173Z,1.80
2018-08-25T11:20:11.124Z,1.80
2018-08-25T11:22:38.428Z,2.07
2018-08-25T11:25:05.801Z,2.17
2018-08-25T11:27:33.113Z,2.13
2018-08-25T11:30:00.458Z,2.40
2018-08-25T11:32:28.097Z,2.13
2018-08-25T11:34:55.395Z,2.40
2018-08-25T11:37:22.723Z,2.40
2018-08-25T11:39:50.046Z,2.10
2018-08-25T11:42:17.982Z,2.73
2018-08-25T11:44:45.479Z,2.53
2018-08-25T11:47:13.933Z,2.53
2018-08-25T11:49:41.430Z,2.63
2018-08-25T11:52:09.156Z,2.57
2018-08-25T11:54:36.467Z,2.63
2018-08-25T11:57:04.105Z,2.40
2018-08-25T11:59:31.418Z,2.53
2018-08-25T12:01:58.728Z,2.83
2018-08-25T12:04:26.153Z,3.00
2018-08-25T12:06:53.815Z,3.00
2018-08-25T12:09:21.139Z,2.50
2018-08-25T12:11:48.862Z,2.10
2018-08-25T12:14:16.141Z,2.37
2018-08-25T12:16:43.472Z,2.30
2018-08-25T12:19:10.776Z,1.90
2018-08-25T12:21:38.096Z,1.70
2018-08-25T12:24:05.710Z,2.20
2018-08-25T12:26:33.058Z,2.30
2018-08-25T12:29:07.047Z,2.37
2018-08-25T12:31:34.400Z,1.83
2018-08-25T12:34:01.676Z,2.17
2018-08-25T12:36:28.966Z,1.70
2018-08-25T12:38:56.338Z,2.00
2018-08-25T12:41:23.644Z,2.00
2018-08-25T12:43:51.069Z,2.20
2018-08-25T12:46:18.381Z,2.00
2018-08-25T12:48:45.714Z,1.93
2018-08-25T12:51:13.015Z,2.17
2018-08-25T12:53:40.604Z,1.80
2018-08-25T12:56:07.972Z,1.90
2018-08-25T12:58:35.247Z,1.93
2018-08-25T13:01:02.532Z,2.10
2018-08-25T13:03:29.848Z,1.80
2018-08-25T13:05:57.267Z,2.10
2018-08-25T13:08:24.565Z,2.10
2018-08-25T13:10:51.895Z,1.90
2018-08-25T13:13:19.235Z,2.00
2018-08-25T13:15:46.500Z,2.07
2018-08-25T13:18:15.422Z,2.00
2018-08-25T13:20:43.080Z,2.00
2018-08-25T13:23:10.458Z,1.90
2018-08-25T13:25:37.769Z,1.90
2018-08-25T13:28:05.053Z,2.23
2018-08-25T13:30:32.381Z,2.00
2018-08-25T13:32:59.651Z,2.10
2018-08-25T13:35:26.970Z,2.07
2018-08-25T13:37:54.554Z,2.37
2018-08-25T13:40:21.859Z,2.00
2018-08-25T13:42:49.226Z,2.33
2018-08-25T13:45:16.636Z,2.40
2018-08-25T13:47:44.006Z,2.40
2018-08-25T13:50:11.300Z,2.30
2018-08-25T13:52:38.829Z,2.07
2018-08-25T13:55:06.090Z,2.33
2018-08-25T13:57:33.483Z,2.20
2018-08-25T14:00:00.776Z,2.40
2018-08-25T14:02:29.948Z,2.43
2018-08-25T14:04:57.245Z,2.43
2018-08-25T14:07:24.547Z,2.30
2018-08-25T14:09:51.835Z,2.60
2018-08-25T14:12:19.120Z,2.27
2018-08-25T14:14:46.443Z,2.53
2018-08-25T14:17:13.725Z,2.33
2018-08-25T14:19:40.987Z,2.17
2018-08-25T14:22:08.278Z,2.00
2018-08-25T14:24:35.666Z,2.00
2018-08-25T14:27:02.999Z,2.17
2018-08-25T14:29:30.358Z,2.20
2018-08-25T14:31:57.847Z,3.03
2018-08-25T14:34:25.655Z,2.00
2018-08-25T14:36:53.005Z,1.97
2018-08-25T14:39:20.326Z,2.20
2018-08-25T14:41:47.684Z,2.10
2018-08-25T14:44:14.992Z,2.20
2018-08-25T14:46:42.259Z,1.90
2018-08-25T14:49:09.544Z,2.37
2018-08-25T14:51:37.070Z,2.10
2018-08-25T14:54:04.341Z,2.30
2018-08-25T14:56:31.843Z,1.93
2018-08-25T14:58:59.249Z,2.20
2018-08-25T15:01:26.658Z,2.33
2018-08-25T15:03:53.988Z,2.00
2018-08-25T15:06:21.266Z,1.90
2018-08-25T15:08:48.547Z,1.90
2018-08-25T15:11:15.932Z,1.90
2018-08-25T15:13:43.243Z,2.00
2018-08-25T15:16:10.521Z,1.60
2018-08-25T15:18:37.820Z,2.03
2018-08-25T15:21:05.301Z,1.70
2018-08-25T15:23:32.587Z,1.90
2018-08-25T15:26:00.121Z,1.90
2018-08-25T15:28:27.417Z,1.60
2018-08-25T15:30:54.764Z,2.17
2018-08-25T15:33:22.024Z,2.00
2018-08-25T15:35:49.328Z,1.83
2018-08-25T15:38:16.622Z,1.70
2018-08-25T15:40:44.004Z,1.83
2018-08-25T15:43:11.376Z,1.80
2018-08-25T15:45:38.702Z,1.90
2018-08-25T15:48:05.989Z,1.93
2018-08-25T15:50:33.746Z,1.80
2018-08-25T15:53:01.153Z,1.80
2018-08-25T15:55:28.475Z,2.07
2018-08-25T15:57:55.931Z,2.00
2018-08-25T16:00:23.135Z,2.33
2018-08-25T16:02:50.665Z,2.20
2018-08-25T16:05:17.995Z,2.20
2018-08-25T16:07:45.551Z,1.87
2018-08-25T16:10:13.158Z,2.00
2018-08-25T16:12:40.514Z,2.00
2018-08-25T16:15:07.936Z,1.90
2018-08-25T16:17:35.719Z,2.10
2018-08-25T16:20:03.528Z,1.83
2018-08-25T16:22:30.817Z,2.10
2018-08-25T16:24:58.397Z,2.10
2018-08-25T16:27:26.155Z,2.20
2018-08-25T16:29:53.619Z,2.30
2018-08-25T16:32:21.212Z,1.90
2018-08-25T16:34:48.690Z,1.97
2018-08-25T16:37:16.683Z,2.00
2018-08-25T16:39:44.038Z,2.30
2018-08-25T16:42:11.509Z,2.50
2018-08-25T16:44:39.302Z,2.40
2018-08-25T16:47:07.076Z,3.03
2018-08-25T16:49:34.522Z,2.40
2018-08-25T16:52:03.000Z,2.10
2018-08-25T16:57:14.214Z,2.10
2018-08-25T16:59:41.540Z,2.23
2018-08-25T17:02:08.964Z,2.20
2018-08-25T17:04:36.408Z,1.80
2018-08-25T17:07:03.854Z,1.90
2018-08-25T17:09:31.282Z,1.80
2018-08-25T17:11:58.545Z,1.90
2018-08-25T17:14:25.870Z,1.80
2018-08-25T17:16:53.162Z,2.00
2018-08-25T17:19:21.009Z,1.90
2018-08-25T17:21:51.770Z,1.90
2018-08-25T17:24:21.251Z,2.15
2018-08-25T17:26:51.396Z,1.90
2018-08-25T17:29:19.819Z,2.12
2018-08-25T17:31:49.275Z,2.00
2018-08-25T17:34:17.774Z,1.90
2018-08-25T17:36:46.553Z,2.10
2018-08-25T17:39:15.730Z,1.90
2018-08-25T17:41:45.938Z,1.90
2018-08-25T17:44:13.530Z,2.17
2018-08-25T17:46:44.233Z,2.05
2018-08-25T17:49:13.012Z,2.02
2018-08-25T17:51:41.400Z,2.00
2018-08-25T17:54:09.436Z,2.40
2018-08-25T17:56:38.663Z,1.90
2018-08-25T17:59:08.586Z,1.98
2018-08-25T18:01:38.361Z,2.10
2018-08-25T18:04:06.635Z,2.30
2018-08-25T18:06:35.306Z,2.17
2018-08-25T18:09:06.636Z,2.58
2018-08-25T18:11:35.121Z,2.58
2018-08-25T18:14:02.947Z,2.25
2018-08-25T18:16:30.455Z,2.80
2018-08-25T18:18:59.530Z,2.67
2018-08-25T18:21:27.384Z,2.33
2018-08-25T18:23:56.966Z,2.25
2018-08-25T18:26:24.592Z,2.45
2018-08-25T18:28:53.186Z,2.62
2018-08-25T18:31:21.384Z,2.80
2018-08-25T18:33:50.269Z,2.60
2018-08-25T18:36:18.011Z,2.52
2018-08-25T18:38:46.976Z,3.08
2018-08-25T18:41:14.663Z,3.33
2018-08-25T18:43:42.840Z,3.05
2018-08-25T18:46:12.065Z,2.85
2018-08-25T18:48:40.933Z,2.75
2018-08-25T18:51:09.842Z,3.30
2018-08-25T18:53:38.610Z,2.87
2018-08-25T18:56:07.350Z,2.92
2018-08-25T18:58:36.001Z,2.85
2018-08-25T19:01:03.414Z,2.90
2018-08-25T19:03:33.392Z,2.75
2018-08-25T19:06:00.887Z,2.95
2018-08-25T19:08:28.237Z,2.77
2018-08-25T19:10:55.813Z,2.80
2018-08-25T19:13:23.116Z,2.70
2018-08-25T19:15:50.495Z,2.85
2018-08-25T19:18:19.990Z,2.65
2018-08-25T19:20:49.572Z,2.90
2018-08-25T19:23:19.389Z,3.05
2018-08-25T19:25:47.412Z,2.42
2018-08-25T19:28:15.700Z,2.67
2018-08-25T19:30:43.397Z,2.85
2018-08-25T19:33:11.934Z,2.85
2018-08-25T19:35:39.785Z,2.58
2018-08-25T19:38:07.685Z,2.80
2018-08-25T19:40:35.917Z,2.87
2018-08-25T19:43:03.968Z,3.02
2018-08-25T19:45:32.523Z,3.08
2018-08-25T19:48:01.157Z,3.15
2018-08-25T19:50:29.050Z,2.50
2018-08-25T19:52:58.801Z,2.70
2018-08-25T19:55:27.828Z,2.42
2018-08-25T19:57:55.499Z,2.60
2018-08-25T20:00:24.044Z,2.40
2018-08-25T20:02:51.837Z,2.80
2018-08-25T20:05:21.250Z,2.50
2018-08-25T20:07:49.100Z,2.52
2018-08-25T20:10:18.570Z,2.40
2018-08-25T20:12:48.084Z,2.30
2018-08-25T20:15:17.418Z,2.30
2018-08-25T20:17:45.006Z,2.55
2018-08-25T20:20:13.202Z,2.45
2018-08-25T20:22:40.519Z,2.62
2018-08-25T20:25:09.515Z,2.30
2018-08-25T20:27:37.146Z,2.65
2018-08-25T20:30:05.709Z,2.40
2018-08-25T20:32:35.028Z,2.67
2018-08-25T20:35:04.086Z,2.75
2018-08-25T20:37:33.962Z,2.92
2018-08-25T20:40:03.546Z,2.77
2018-08-25T20:42:31.928Z,2.80
2018-08-25T20:45:01.964Z,2.95
2018-08-25T20:47:32.158Z,2.85
2018-08-25T20:50:01.589Z,2.45
2018-08-25T20:52:29.556Z,2.50
2018-08-25T20:55:00.317Z,3.15
2018-08-25T20:57:29.226Z,2.30
2018-08-25T20:59:58.647Z,2.92
2018-08-25T21:02:26.081Z,2.80
2018-08-25T21:04:57.804Z,2.45
2018-08-25T21:07:26.155Z,2.60
2018-08-25T21:09:55.382Z,2.30
2018-08-25T21:12:24.451Z,2.30
2018-08-25T21:14:55.272Z,2.22
2018-08-25T21:17:26.432Z,2.70
2018-08-25T21:19:54.442Z,2.30
2018-08-25T21:22:23.844Z,2.10
2018-08-25T21:24:53.835Z,2.35
2018-08-25T21:27:24.575Z,2.25
2018-08-25T21:29:54.011Z,2.00
2018-08-25T21:32:22.483Z,2.00
2018-08-25T21:34:49.773Z,2.30
2018-08-25T21:37:17.067Z,2.20
2018-08-25T21:39:44.390Z,2.25
2018-08-25T21:42:11.692Z,2.67
2018-08-25T21:44:40.216Z,2.33
2018-08-25T21:47:07.710Z,2.30
2018-08-25T21:49:35.016Z,2.55
2018-08-25T21:52:04.256Z,2.60
2018-08-25T21:54:33.023Z,2.40
2018-08-25T21:57:01.439Z,2.40
2018-08-25T21:59:30.415Z,3.00
2018-08-25T22:02:00.998Z,2.30
2018-08-25T22:04:30.092Z,3.15
2018-08-25T22:06:58.608Z,2.60
2018-08-25T22:09:27.192Z,2.50
2018-08-25T22:11:56.021Z,2.77
2018-08-25T22:14:23.394Z,2.20
2018-08-25T22:16:51.082Z,2.50
2018-08-25T22:19:18.935Z,2.55
2018-08-25T22:21:46.919Z,2.60
2018-08-25T22:24:15.325Z,2.72
2018-08-25T22:26:42.715Z,2.50
2018-08-25T22:29:09.980Z,2.90
2018-08-25T22:31:37.953Z,2.33
2018-08-25T22:34:05.417Z,2.25
2018-08-25T22:36:32.925Z,2.15
2018-08-25T22:39:00.544Z,2.30
2018-08-25T22:41:28.824Z,2.60
2018-08-25T22:43:56.271Z,2.20
2018-08-25T22:46:24.022Z,2.33
2018-08-25T22:48:51.779Z,2.30
2018-08-25T22:51:19.106Z,2.35
2018-08-25T22:53:46.503Z,2.40
2018-08-25T22:56:14.882Z,2.52
2018-08-25T22:58:42.457Z,2.37
2018-08-25T23:01:10.191Z,2.42
2018-08-25T23:03:37.810Z,2.40
2018-08-25T23:06:05.469Z,2.47
2018-08-25T23:08:32.765Z,2.60
2018-08-25T23:11:00.351Z,2.70
2018-08-25T23:13:27.874Z,2.85
2018-08-25T23:15:55.143Z,2.98
2018-08-25T23:18:23.034Z,2.65
2018-08-25T23:20:51.522Z,3.27
2018-08-25T23:23:19.905Z,2.47
2018-08-25T23:25:47.213Z,2.58
2018-08-25T23:28:16.832Z,2.35
2018-08-25T23:30:44.137Z,2.60
2018-08-25T23:33:11.910Z,2.40
2018-08-25T23:35:42.276Z,2.40
2018-08-25T23:38:09.830Z,2.75
2018-08-25T23:40:37.934Z,2.25
2018-08-25T23:43:05.210Z,2.22
2018-08-25T23:45:32.689Z,2.35
2018-08-25T23:48:00.745Z,2.20
2018-08-25T23:50:29.286Z,1.90
2018-08-25T23:52:57.228Z,2.20
2018-08-25T23:55:25.906Z,2.35
2018-08-25T23:57:53.198Z,2.20
